createdAt,value
2023-08-06T00:01:04.169Z,19.78
2023-08-06T00:03:31.626Z,19.78
2023-08-06T00:05:58.811Z,19.78
2023-08-06T00:08:25.586Z,19.76
2023-08-06T00:11:11.768Z,19.75
2023-08-06T00:13:38.562Z,19.75
2023-08-06T00:16:13.606Z,19.74
2023-08-06T00:18:41.816Z,19.72
2023-08-06T00:21:09.256Z,19.73
2023-08-06T00:23:36.027Z,19.73
2023-08-06T00:26:03.142Z,19.72
2023-08-06T00:28:30.812Z,19.70
2023-08-06T00:30:57.842Z,19.70
2023-08-06T00:33:25.257Z,19.73
2023-08-06T00:35:52.786Z,19.70
2023-08-06T00:38:19.562Z,19.68
2023-08-06T00:40:46.700Z,19.71
2023-08-06T00:43:14.395Z,19.67
2023-08-06T00:45:41.566Z,19.65
2023-08-06T00:48:08.937Z,19.65
2023-08-06T00:50:36.504Z,19.65
2023-08-06T00:53:03.470Z,19.65
2023-08-06T00:55:30.970Z,19.67
2023-08-06T00:57:58.508Z,19.67
2023-08-06T01:00:26.155Z,19.66
2023-08-06T01:02:54.660Z,19.63
2023-08-06T01:05:24.057Z,19.66
2023-08-06T01:08:10.131Z,19.65
2023-08-06T01:11:06.413Z,19.60
2023-08-06T01:13:47.635Z,19.62
2023-08-06T01:16:18.550Z,19.60
2023-08-06T01:18:50.693Z,19.62
2023-08-06T01:21:18.486Z,19.59
2023-08-06T01:23:47.171Z,19.57
2023-08-06T01:26:17.378Z,19.57
2023-08-06T01:29:12.014Z,19.55
2023-08-06T01:31:40.742Z,19.54
2023-08-06T01:34:15.136Z,19.50
2023-08-06T01:36:43.117Z,19.49
2023-08-06T01:39:10.538Z,19.48
2023-08-06T01:41:37.772Z,19.47
2023-08-06T01:44:05.065Z,19.47
2023-08-06T01:46:32.288Z,19.50
2023-08-06T01:48:59.433Z,19.48
2023-08-06T01:51:26.828Z,19.46
2023-08-06T01:53:53.600Z,19.46
2023-08-06T01:56:20.765Z,19.46
2023-08-06T01:58:47.882Z,19.45
2023-08-06T02:01:14.978Z,19.43
2023-08-06T02:03:41.930Z,19.44
2023-08-06T02:06:09.453Z,19.44
2023-08-06T02:08:36.206Z,19.42
2023-08-06T02:11:04.241Z,19.39
2023-08-06T02:13:31.496Z,19.40
2023-08-06T02:15:58.661Z,19.38
2023-08-06T02:18:25.494Z,19.36
2023-08-06T02:21:00.254Z,19.36
2023-08-06T02:23:27.828Z,19.37
2023-08-06T02:25:59.688Z,19.38
2023-08-06T02:28:26.900Z,19.35
2023-08-06T02:30:54.264Z,19.36
2023-08-06T02:33:21.469Z,19.36
2023-08-06T02:35:48.792Z,19.36
2023-08-06T02:38:15.671Z,19.33
2023-08-06T02:40:47.138Z,19.31
2023-08-06T02:43:14.765Z,19.30
2023-08-06T02:45:42.031Z,19.30
2023-08-06T02:48:09.233Z,19.30
2023-08-06T02:50:40.681Z,19.29
2023-08-06T02:53:11.162Z,19.29
2023-08-06T02:55:38.255Z,19.27
2023-08-06T02:58:05.415Z,19.27
2023-08-06T03:00:32.252Z,19.27
2023-08-06T03:02:59.696Z,19.25
2023-08-06T03:05:26.817Z,19.25
2023-08-06T03:07:53.676Z,19.25
2023-08-06T03:10:21.485Z,19.24
2023-08-06T03:12:48.909Z,19.23
2023-08-06T03:15:16.412Z,19.24
2023-08-06T03:17:43.283Z,19.23
2023-08-06T03:20:10.424Z,19.23
2023-08-06T03:22:37.944Z,19.22
2023-08-06T03:25:05.311Z,19.22
2023-08-06T03:27:32.404Z,19.20
2023-08-06T03:30:01.675Z,19.18
2023-08-06T03:32:28.824Z,19.18
2023-08-06T03:34:55.599Z,19.18
2023-08-06T03:37:22.831Z,19.19
2023-08-06T03:39:49.904Z,19.20
2023-08-06T03:42:16.638Z,19.19
2023-08-06T03:44:44.052Z,19.18
2023-08-06T03:47:10.835Z,19.18
2023-08-06T03:49:38.225Z,19.18
2023-08-06T03:52:05.691Z,19.14
2023-08-06T03:54:33.214Z,19.13
2023-08-06T03:57:00.039Z,19.12
2023-08-06T03:59:27.204Z,19.11
2023-08-06T04:01:54.486Z,19.10
2023-08-06T04:04:21.792Z,19.08
2023-08-06T04:06:48.615Z,19.09
2023-08-06T04:09:15.685Z,19.04
2023-08-06T04:11:42.987Z,19.05
2023-08-06T04:14:10.089Z,19.05
2023-08-06T04:16:37.211Z,19.04
2023-08-06T04:19:04.355Z,18.99
2023-08-06T04:21:31.428Z,19.02
2023-08-06T04:23:58.534Z,19.01
2023-08-06T04:26:25.956Z,19.04
2023-08-06T04:28:52.788Z,19.04
2023-08-06T04:31:19.838Z,19.02
2023-08-06T04:33:46.939Z,19.05
2023-08-06T04:36:14.181Z,19.06
2023-08-06T04:38:46.057Z,19.04
2023-08-06T04:41:12.867Z,19.06
2023-08-06T04:43:40.318Z,19.05
2023-08-06T04:46:08.073Z,19.01
2023-08-06T04:48:35.193Z,19.03
2023-08-06T04:51:02.288Z,19.05
2023-08-06T04:53:29.059Z,19.05
2023-08-06T04:55:56.248Z,19.06
2023-08-06T04:58:23.328Z,19.06
2023-08-06T05:00:50.335Z,19.05
2023-08-06T05:03:17.857Z,19.06
2023-08-06T05:05:45.263Z,19.06
2023-08-06T05:08:17.177Z,19.06
2023-08-06T05:10:46.118Z,19.05
2023-08-06T05:13:13.189Z,19.06
2023-08-06T05:15:43.913Z,19.06
2023-08-06T05:18:12.706Z,19.05
2023-08-06T05:20:43.901Z,19.06
2023-08-06T05:23:10.698Z,19.07
2023-08-06T05:25:41.624Z,19.07
2023-08-06T05:28:08.806Z,19.05
2023-08-06T05:30:40.079Z,19.05
2023-08-06T05:33:07.693Z,19.07
2023-08-06T05:35:34.801Z,19.08
2023-08-06T05:38:01.965Z,19.10
2023-08-06T05:40:28.708Z,19.11
2023-08-06T05:42:56.680Z,19.10
2023-08-06T05:45:23.774Z,19.09
2023-08-06T05:47:51.010Z,19.11
2023-08-06T05:50:18.625Z,19.11
2023-08-06T05:52:45.457Z,19.12
2023-08-06T05:55:12.698Z,19.13
2023-08-06T05:57:39.833Z,19.15
2023-08-06T06:00:08.495Z,19.17
2023-08-06T06:02:35.634Z,19.16
2023-08-06T06:05:02.747Z,19.16
2023-08-06T06:07:29.820Z,19.19
2023-08-06T06:09:56.935Z,19.20
2023-08-06T06:12:24.128Z,19.23
2023-08-06T06:14:51.522Z,19.23
2023-08-06T06:17:18.593Z,19.25
2023-08-06T06:19:45.433Z,19.27
2023-08-06T06:22:12.796Z,19.28
2023-08-06T06:24:39.628Z,19.29
2023-08-06T06:27:07.183Z,19.30
2023-08-06T06:29:53.977Z,19.31
2023-08-06T06:32:22.188Z,19.33
2023-08-06T06:34:49.265Z,19.32
2023-08-06T06:37:16.708Z,19.33
2023-08-06T06:39:44.016Z,19.32
2023-08-06T06:42:10.824Z,19.33
2023-08-06T06:44:38.343Z,19.33
2023-08-06T06:47:06.154Z,19.31
2023-08-06T06:49:33.465Z,19.33
2023-08-06T06:52:00.289Z,19.30
2023-08-06T06:54:27.401Z,19.31
2023-08-06T06:56:54.506Z,19.30
2023-08-06T06:59:21.628Z,19.31
2023-08-06T07:01:49.028Z,19.33
2023-08-06T07:04:16.157Z,19.36
2023-08-06T07:06:43.718Z,19.37
2023-08-06T07:09:13.518Z,19.39
2023-08-06T07:11:40.820Z,19.41
2023-08-06T07:14:09.295Z,19.43
2023-08-06T07:16:36.220Z,19.51
2023-08-06T07:19:03.695Z,19.56
2023-08-06T07:21:30.481Z,19.58
2023-08-06T07:23:57.656Z,19.59
2023-08-06T07:26:25.154Z,19.62
2023-08-06T07:28:52.039Z,19.62
2023-08-06T07:31:19.146Z,19.63
2023-08-06T07:33:46.373Z,19.65
2023-08-06T07:36:15.346Z,19.68
2023-08-06T07:38:42.599Z,19.70
2023-08-06T07:41:10.660Z,19.72
2023-08-06T07:43:37.914Z,19.73
2023-08-06T07:46:05.210Z,19.75
2023-08-06T07:48:32.082Z,19.76
2023-08-06T07:50:59.566Z,19.77
2023-08-06T07:53:30.762Z,19.77
2023-08-06T07:55:58.203Z,19.81
2023-08-06T07:58:26.855Z,19.81
2023-08-06T08:00:54.099Z,19.82
2023-08-06T08:03:21.092Z,19.84
2023-08-06T08:05:48.812Z,19.87
2023-08-06T08:08:15.696Z,19.89
2023-08-06T08:10:43.210Z,19.94
2023-08-06T08:13:11.548Z,19.98
2023-08-06T08:15:38.346Z,20.02
2023-08-06T08:18:05.540Z,20.09
2023-08-06T08:20:33.096Z,20.21
2023-08-06T08:23:04.207Z,20.24
2023-08-06T08:25:32.885Z,20.28
2023-08-06T08:28:00.068Z,20.33
2023-08-06T08:30:27.914Z,20.38
2023-08-06T08:32:55.229Z,20.42
2023-08-06T08:35:22.344Z,20.45
2023-08-06T08:37:50.350Z,20.50
2023-08-06T08:40:17.931Z,20.54
2023-08-06T08:42:45.181Z,20.58
2023-08-06T08:45:21.909Z,20.63
2023-08-06T08:47:49.753Z,20.67
2023-08-06T08:50:19.559Z,20.70
2023-08-06T08:52:47.013Z,20.76
2023-08-06T08:55:16.775Z,20.83
2023-08-06T08:57:44.789Z,20.88
2023-08-06T09:00:12.165Z,20.91
2023-08-06T09:02:40.667Z,20.97
2023-08-06T09:05:09.465Z,21.03
2023-08-06T09:07:49.584Z,21.08
2023-08-06T09:10:20.439Z,21.14
2023-08-06T09:12:48.185Z,21.20
2023-08-06T09:15:15.567Z,21.25
2023-08-06T09:17:42.418Z,21.31
2023-08-06T09:20:28.682Z,21.37
2023-08-06T09:22:55.540Z,21.44
2023-08-06T09:25:25.932Z,21.50
2023-08-06T09:27:53.429Z,21.56
2023-08-06T09:30:35.461Z,21.61
2023-08-06T09:33:02.685Z,21.67
2023-08-06T09:35:33.455Z,21.71
2023-08-06T09:38:18.406Z,21.76
2023-08-06T09:40:45.655Z,21.82
2023-08-06T09:43:13.299Z,21.88
2023-08-06T09:45:40.194Z,21.92
2023-08-06T09:48:09.418Z,21.97
2023-08-06T09:50:39.176Z,22.01
2023-08-06T09:53:08.482Z,22.07
2023-08-06T09:55:36.049Z,22.15
2023-08-06T09:58:03.625Z,22.20
2023-08-06T10:00:32.468Z,22.22
2023-08-06T10:03:02.526Z,22.25
2023-08-06T10:05:32.887Z,22.28
2023-08-06T10:08:00.933Z,22.28
2023-08-06T10:10:29.370Z,22.31
2023-08-06T10:12:59.624Z,22.31
2023-08-06T10:15:30.433Z,22.32
2023-08-06T10:18:00.547Z,22.34
2023-08-06T10:20:28.071Z,22.36
2023-08-06T10:23:02.771Z,22.39
2023-08-06T10:25:35.238Z,22.40
2023-08-06T10:28:10.518Z,22.40
2023-08-06T10:30:46.676Z,22.39
2023-08-06T10:33:13.998Z,22.40
2023-08-06T10:35:52.452Z,22.36
2023-08-06T10:38:24.083Z,22.37
2023-08-06T10:41:05.079Z,22.37
2023-08-06T10:43:32.211Z,22.35
2023-08-06T10:46:01.741Z,22.34
2023-08-06T10:48:42.857Z,22.34
2023-08-06T10:51:11.836Z,22.32
2023-08-06T10:53:43.021Z,22.30
2023-08-06T10:56:23.909Z,22.29
2023-08-06T10:58:53.040Z,22.24
2023-08-06T11:01:20.736Z,22.21
2023-08-06T11:03:50.445Z,22.18
2023-08-06T11:06:22.392Z,22.16
2023-08-06T11:08:55.017Z,22.15
2023-08-06T11:11:24.803Z,22.12
2023-08-06T11:13:53.156Z,22.08
2023-08-06T11:16:24.818Z,22.05
2023-08-06T11:18:54.071Z,22.03
2023-08-06T11:21:22.799Z,22.00
2023-08-06T11:23:50.504Z,21.98
2023-08-06T11:26:21.829Z,21.95
2023-08-06T11:28:48.747Z,21.94
2023-08-06T11:31:23.032Z,21.90
2023-08-06T11:33:57.236Z,21.89
2023-08-06T11:36:34.750Z,21.87
2023-08-06T11:39:03.961Z,21.85
2023-08-06T11:41:31.807Z,21.84
2023-08-06T11:44:00.120Z,21.85
2023-08-06T11:46:27.674Z,21.83
2023-08-06T11:48:59.914Z,21.80
2023-08-06T11:51:28.113Z,21.79
2023-08-06T11:53:59.513Z,21.77
2023-08-06T11:56:27.675Z,21.76
2023-08-06T11:58:57.174Z,21.74
2023-08-06T12:01:24.567Z,21.73
2023-08-06T12:03:51.418Z,21.71
2023-08-06T12:06:18.963Z,21.68
2023-08-06T12:08:45.954Z,21.67
2023-08-06T12:11:13.366Z,21.62
2023-08-06T12:13:40.433Z,21.55
2023-08-06T12:16:07.596Z,21.52
2023-08-06T12:18:34.846Z,21.52
2023-08-06T12:21:02.054Z,21.52
2023-08-06T12:23:28.807Z,21.55
2023-08-06T12:25:56.240Z,21.58
2023-08-06T12:28:24.121Z,21.59
2023-08-06T12:30:52.063Z,21.60
2023-08-06T12:33:20.479Z,21.64
2023-08-06T12:35:47.843Z,21.68
2023-08-06T12:38:14.833Z,21.70
2023-08-06T12:40:43.951Z,21.70
2023-08-06T12:43:11.290Z,21.74
2023-08-06T12:45:38.080Z,21.74
2023-08-06T12:48:05.903Z,21.74
2023-08-06T12:50:34.091Z,21.77
2023-08-06T12:53:01.997Z,21.79
2023-08-06T12:55:31.893Z,21.82
2023-08-06T12:58:00.431Z,21.86
2023-08-06T13:00:27.942Z,21.89
2023-08-06T13:02:55.631Z,21.93
2023-08-06T13:05:23.028Z,21.92
2023-08-06T13:07:50.491Z,21.93
2023-08-06T13:10:17.904Z,21.96
2023-08-06T13:12:45.723Z,21.97
2023-08-06T13:15:15.951Z,21.98
2023-08-06T13:17:43.352Z,21.99
2023-08-06T13:20:11.743Z,22.03
2023-08-06T13:22:39.196Z,22.04
2023-08-06T13:25:06.375Z,22.07
2023-08-06T13:27:34.020Z,22.08
2023-08-06T13:30:01.951Z,22.09
2023-08-06T13:32:29.134Z,22.11
2023-08-06T13:34:56.541Z,22.13
2023-08-06T13:37:24.200Z,22.14
2023-08-06T13:39:51.267Z,22.16
2023-08-06T13:42:18.826Z,22.18
2023-08-06T13:44:46.277Z,22.21
2023-08-06T13:47:13.506Z,22.23
2023-08-06T13:52:28.386Z,22.31
2023-08-06T13:54:55.819Z,22.37
2023-08-06T13:57:22.891Z,22.43
2023-08-06T13:59:50.792Z,22.48
2023-08-06T14:02:18.627Z,22.56
2023-08-06T14:04:46.438Z,22.67
2023-08-06T14:07:13.691Z,22.78
2023-08-06T14:09:41.796Z,22.86
2023-08-06T14:12:08.961Z,22.95
2023-08-06T14:14:38.239Z,23.04
2023-08-06T14:17:06.103Z,23.10
2023-08-06T14:19:33.602Z,23.17
2023-08-06T14:22:01.288Z,23.21
2023-08-06T14:24:29.301Z,23.26
2023-08-06T14:26:57.038Z,23.32
2023-08-06T14:29:24.595Z,23.34
2023-08-06T14:31:53.027Z,23.39
2023-08-06T14:34:20.629Z,23.41
2023-08-06T14:36:50.037Z,23.46
2023-08-06T14:39:17.849Z,23.52
2023-08-06T14:41:46.289Z,23.59
2023-08-06T14:44:13.432Z,23.66
2023-08-06T14:46:41.206Z,23.72
2023-08-06T14:49:08.509Z,23.80
2023-08-06T14:51:35.977Z,23.85
2023-08-06T14:54:03.623Z,23.92
2023-08-06T14:56:31.407Z,23.98
2023-08-06T14:58:58.918Z,24.02
2023-08-06T15:01:26.569Z,24.10
2023-08-06T15:03:55.325Z,24.13
2023-08-06T15:06:23.198Z,24.18
2023-08-06T15:08:50.426Z,24.25
2023-08-06T15:11:18.101Z,24.29
2023-08-06T15:13:45.572Z,24.31
2023-08-06T15:16:13.595Z,24.32
2023-08-06T15:18:41.436Z,24.34
2023-08-06T15:21:09.155Z,24.35
2023-08-06T15:23:37.535Z,24.37
2023-08-06T15:26:04.996Z,24.37
2023-08-06T15:28:32.751Z,24.39
2023-08-06T15:31:00.614Z,24.38
2023-08-06T15:33:28.076Z,24.38
2023-08-06T15:35:54.993Z,24.36
2023-08-06T15:38:22.133Z,24.33
2023-08-06T15:40:49.999Z,24.33
2023-08-06T15:43:17.110Z,24.29
2023-08-06T15:45:44.195Z,24.27
2023-08-06T15:48:12.236Z,24.24
2023-08-06T15:50:40.406Z,24.22
2023-08-06T15:53:08.174Z,24.17
2023-08-06T15:55:38.868Z,24.15
2023-08-06T15:58:06.914Z,24.15
2023-08-06T16:00:35.145Z,24.11
2023-08-06T16:03:04.226Z,24.10
2023-08-06T16:05:32.666Z,24.08
2023-08-06T16:08:00.863Z,24.07
2023-08-06T16:10:27.940Z,24.04
2023-08-06T16:12:55.141Z,24.01
2023-08-06T16:15:23.433Z,23.98
2023-08-06T16:17:50.896Z,23.98
2023-08-06T16:20:19.118Z,23.96
2023-08-06T16:22:47.217Z,23.93
2023-08-06T16:25:14.741Z,23.92
2023-08-06T16:27:43.027Z,23.88
2023-08-06T16:30:10.897Z,23.86
2023-08-06T16:32:38.981Z,23.85
2023-08-06T16:35:08.463Z,23.84
2023-08-06T16:37:36.010Z,23.84
2023-08-06T16:40:06.093Z,23.83
2023-08-06T16:42:33.498Z,23.82
2023-08-06T16:45:02.428Z,23.81
2023-08-06T16:47:30.104Z,23.80
2023-08-06T16:49:59.044Z,23.79
2023-08-06T16:52:26.585Z,23.77
2023-08-06T16:54:54.117Z,23.76
2023-08-06T16:57:22.081Z,23.74
2023-08-06T16:59:49.908Z,23.72
2023-08-06T17:02:17.712Z,23.72
2023-08-06T17:04:48.302Z,23.72
2023-08-06T17:07:15.641Z,23.70
2023-08-06T17:09:44.008Z,23.69
2023-08-06T17:12:11.620Z,23.66
2023-08-06T17:14:39.017Z,23.64
2023-08-06T17:17:06.841Z,23.63
2023-08-06T17:19:34.122Z,23.62
2023-08-06T17:22:02.478Z,23.56
2023-08-06T17:24:29.645Z,23.55
2023-08-06T17:27:00.350Z,23.54
2023-08-06T17:29:27.918Z,23.52
2023-08-06T17:31:55.711Z,23.49
2023-08-06T17:34:23.678Z,23.48
2023-08-06T17:36:51.029Z,23.46
2023-08-06T17:39:18.686Z,23.41
2023-08-06T17:41:48.247Z,23.40
2023-08-06T17:44:16.564Z,23.39
2023-08-06T17:46:44.277Z,23.38
2023-08-06T17:49:12.225Z,23.34
2023-08-06T17:51:39.613Z,23.32
2023-08-06T17:54:08.602Z,23.31
2023-08-06T17:56:36.582Z,23.29
2023-08-06T17:59:04.258Z,23.24
2023-08-06T18:01:31.660Z,23.21
2023-08-06T18:03:59.294Z,23.18
2023-08-06T18:06:26.917Z,23.16
2023-08-06T18:08:54.080Z,23.09
2023-08-06T18:11:21.643Z,23.03
2023-08-06T18:13:50.956Z,22.98
2023-08-06T18:16:18.362Z,22.96
2023-08-06T18:18:45.887Z,22.89
2023-08-06T18:21:15.390Z,22.84
2023-08-06T18:23:42.995Z,22.77
2023-08-06T18:26:10.408Z,22.72
2023-08-06T18:28:37.989Z,22.65
2023-08-06T18:31:05.481Z,22.60
2023-08-06T18:33:33.236Z,22.53
2023-08-06T18:36:00.988Z,22.49
2023-08-06T18:38:28.548Z,22.46
2023-08-06T18:40:59.697Z,22.41
2023-08-06T18:43:29.221Z,22.39
2023-08-06T18:45:57.574Z,22.34
2023-08-06T18:48:26.327Z,22.29
2023-08-06T18:50:55.351Z,22.24
2023-08-06T18:53:23.162Z,22.13
2023-08-06T18:55:52.353Z,22.08
2023-08-06T18:58:20.091Z,22.04
2023-08-06T19:00:48.625Z,22.01
2023-08-06T19:03:16.100Z,21.96
2023-08-06T19:05:44.801Z,21.92
2023-08-06T19:08:15.335Z,21.89
2023-08-06T19:10:42.592Z,21.83
2023-08-06T19:13:12.991Z,21.82
2023-08-06T19:15:45.967Z,21.75
2023-08-06T19:18:13.621Z,21.74
2023-08-06T19:20:45.658Z,21.71
2023-08-06T19:23:21.742Z,21.69
2023-08-06T19:25:50.398Z,21.64
2023-08-06T19:28:18.659Z,21.62
2023-08-06T19:30:45.902Z,21.61
2023-08-06T19:33:17.524Z,21.57
2023-08-06T19:35:50.588Z,21.51
2023-08-06T19:38:23.563Z,21.48
2023-08-06T19:40:51.596Z,21.44
2023-08-06T19:43:19.679Z,21.39
2023-08-06T19:45:50.804Z,21.36
2023-08-06T19:48:18.249Z,21.27
2023-08-06T19:51:01.385Z,21.25
2023-08-06T19:53:32.927Z,21.23
2023-08-06T19:56:03.541Z,21.20
2023-08-06T19:58:33.758Z,21.17
2023-08-06T20:01:01.442Z,21.09
2023-08-06T20:03:32.881Z,21.02
2023-08-06T20:06:04.445Z,20.99
2023-08-06T20:08:35.049Z,20.96
2023-08-06T20:11:02.207Z,20.91
2023-08-06T20:13:29.857Z,20.85
2023-08-06T20:15:57.600Z,20.85
2023-08-06T20:18:27.333Z,20.79
2023-08-06T20:20:55.666Z,20.73
2023-08-06T20:23:24.553Z,20.73
2023-08-06T20:25:54.224Z,20.68
2023-08-06T20:28:21.702Z,20.62
2023-08-06T20:30:49.312Z,20.63
2023-08-06T20:33:16.383Z,20.58
2023-08-06T20:35:44.452Z,20.51
2023-08-06T20:38:12.068Z,20.49
2023-08-06T20:40:45.513Z,20.44
2023-08-06T20:43:13.320Z,20.38
2023-08-06T20:45:41.570Z,20.32
2023-08-06T20:48:08.935Z,20.29
2023-08-06T20:50:41.902Z,20.25
2023-08-06T20:53:09.737Z,20.22
2023-08-06T20:55:37.053Z,20.22
2023-08-06T20:58:03.886Z,20.21
2023-08-06T21:00:30.948Z,20.19
2023-08-06T21:02:58.518Z,20.19
2023-08-06T21:05:27.766Z,20.15
2023-08-06T21:07:55.161Z,20.15
2023-08-06T21:10:22.211Z,20.16
2023-08-06T21:12:49.349Z,20.14
2023-08-06T21:15:16.186Z,20.14
2023-08-06T21:17:44.062Z,20.12
2023-08-06T21:20:11.170Z,20.08
2023-08-06T21:22:38.293Z,20.05
2023-08-06T21:25:05.917Z,20.04
2023-08-06T21:27:33.066Z,19.99
2023-08-06T21:29:59.968Z,20.01
2023-08-06T21:32:27.229Z,19.99
2023-08-06T21:34:54.424Z,19.96
2023-08-06T21:37:21.937Z,19.93
2023-08-06T21:39:49.064Z,19.90
2023-08-06T21:42:15.863Z,19.86
2023-08-06T21:44:43.005Z,19.84
2023-08-06T21:47:11.038Z,19.83
2023-08-06T21:49:38.178Z,19.79
2023-08-06T21:52:05.363Z,19.74
2023-08-06T21:54:32.849Z,19.70
2023-08-06T21:57:00.010Z,19.69
2023-08-06T21:59:27.163Z,19.64
2023-08-06T22:01:54.834Z,19.59
2023-08-06T22:04:22.524Z,19.58
2023-08-06T22:06:49.270Z,19.55
2023-08-06T22:09:16.350Z,19.51
2023-08-06T22:11:43.781Z,19.46
2023-08-06T22:14:10.556Z,19.40
2023-08-06T22:16:37.694Z,19.36
2023-08-06T22:19:05.213Z,19.32
2023-08-06T22:21:32.707Z,19.29
2023-08-06T22:24:00.110Z,19.26
2023-08-06T22:26:27.252Z,19.22
2023-08-06T22:29:01.252Z,19.17
2023-08-06T22:31:29.495Z,19.14
2023-08-06T22:33:56.685Z,19.13
2023-08-06T22:36:23.897Z,19.09
2023-08-06T22:38:50.961Z,19.02
2023-08-06T22:41:19.258Z,18.95
2023-08-06T22:43:46.028Z,18.92
2023-08-06T22:46:13.729Z,18.88
2023-08-06T22:48:41.258Z,18.88
2023-08-06T22:51:08.032Z,18.85
2023-08-06T22:53:35.156Z,18.81
2023-08-06T22:56:08.957Z,18.79
2023-08-06T22:58:39.044Z,18.77
2023-08-06T23:01:06.132Z,18.75
2023-08-06T23:03:33.402Z,18.75
2023-08-06T23:06:00.568Z,18.72
2023-08-06T23:08:27.728Z,18.69
2023-08-06T23:10:54.521Z,18.69
2023-08-06T23:13:21.689Z,18.62
2023-08-06T23:15:49.399Z,18.63
2023-08-06T23:18:16.192Z,18.60
2023-08-06T23:20:44.708Z,18.58
2023-08-06T23:23:11.833Z,18.53
2023-08-06T23:25:38.571Z,18.48
2023-08-06T23:28:06.046Z,18.46
2023-08-06T23:30:33.529Z,18.47
2023-08-06T23:33:00.403Z,18.45
2023-08-06T23:35:27.808Z,18.40
2023-08-06T23:37:54.727Z,18.42
2023-08-06T23:40:22.087Z,18.41
2023-08-06T23:42:49.542Z,18.40
2023-08-06T23:45:16.383Z,18.41
2023-08-06T23:47:44.540Z,18.40
2023-08-06T23:50:11.731Z,18.39
2023-08-06T23:52:38.579Z,18.37
2023-08-06T23:55:06.248Z,18.36
2023-08-06T23:57:33.757Z,18.31
